Terminal Aerodrome Forecast
Issued by NWS Albany, NY

Home | Current Version | Previous Version | Text Only | Print | Product List | Glossary On
Versions: 1 2 3 4 5 6 7 8 9 10 11 12 13 14
246
FTUS41 KALY 171721
TAFALB
TAF
KALB 171721Z 1718/1818 04003KT P6SM VCSH BKN090 BKN120 OVC260
      TEMPO 1718/1721 4SM -FZRAPL BKN025 OVC050
     FM172100 13006KT 3SM -FZRAPL BR OVC020
     FM180000 13006KT 3SM -RAPL BR OVC010
     FM181200 05003KT 4SM BR OVC025=

USA.gov is the U.S. government's official web portal to all federal, state and local government web resources and services.